Time;durP1;ratioP1;P1;durP2;ratioP2;P2;SDS_P1;SDS_P2;PMS_P1;PMS_P2;Temp;Humidity;BMP_temperature;BMP_pressure;BME280_temperature;BME280_humidity;BME280_pressure;Samples;Min_cycle;Max_cycle;Signal;HPM_P1;HPM_P2
2022/08/19 00:01:25;;;;;;;;;;;22.80;68.30;;;22.19;62.87;95995.88;4264318;33;20326;-84
2022/08/19 00:03:53;;;;;;;;;;;22.80;68.20;;;22.18;62.61;95987.84;4263683;33;19977;-84
2022/08/19 00:06:22;;;;;;;;;;;22.80;68.20;;;22.18;62.79;95996.19;4264236;33;19902;-84
2022/08/19 00:08:51;;;;;;;;;;;22.80;68.10;;;22.18;63.03;95994.25;4264046;33;19909;-83
2022/08/19 00:11:21;;;;;;;;;;;22.80;68.30;;;22.17;62.96;95991.78;4264192;33;20270;-84
2022/08/19 00:13:50;;;;;;;;;;;22.70;68.20;;;22.15;62.80;95988.53;4263443;33;19944;-84
2022/08/19 00:16:19;;;;;;;;;;;22.70;68.20;;;22.17;62.76;95991.78;4263156;33;19909;-84
2022/08/19 00:18:47;;;;;;;;;;;22.70;68.10;;;22.17;62.85;95991.78;4263978;33;19908;-84
2022/08/19 00:21:16;;;;;;;;;;;22.70;68.10;;;22.16;62.71;96002.13;4262867;33;19991;-84
2022/08/19 00:23:45;;;;;;;;;;;22.70;68.10;;;22.16;62.83;95998.53;4263502;33;20267;-84
2022/08/19 00:26:19;;;;;;;;;;;22.70;68.10;;;22.15;62.88;95999.69;4263024;33;20029;-84
2022/08/19 00:29:10;;;;;;;;;;;22.70;68.10;;;22.15;62.78;96005.25;4263721;33;19917;-84
2022/08/19 00:36:37;;;;;;;;;;;22.70;68.10;;;22.14;62.93;95998.09;4265239;33;19897;-84
2022/08/19 00:39:05;;;;;;;;;;;22.70;68.10;;;22.13;62.75;95993.66;4263885;33;19901;-84
2022/08/19 00:41:37;;;;;;;;;;;22.70;68.20;;;22.13;62.94;96002.03;4263369;33;19940;-84
2022/08/19 00:48:41;;;;;;;;;;;22.70;68.10;;;22.12;62.81;96001.19;4184549;33;19903;-84
2022/08/19 00:51:54;;;;;;;;;;;22.70;68.10;;;22.11;62.68;96010.72;4233989;33;19902;-84
2022/08/19 00:54:22;;;;;;;;;;;22.70;68.10;;;22.12;62.61;96001.19;4210166;33;19981;-84
2022/08/19 00:56:51;;;;;;;;;;;22.70;68.10;;;22.12;62.51;96014.34;4233909;33;20260;-83
2022/08/19 00:59:20;;;;;;;;;;;22.70;68.00;;;22.11;62.67;96018.28;4233800;33;20055;-83
2022/08/19 01:01:48;;;;;;;;;;;22.70;68.00;;;22.11;62.25;96018.28;4234041;33;20129;-83
2022/08/19 01:04:18;;;;;;;;;;;22.70;68.10;;;22.11;62.39;96018.28;4233326;33;19909;-83
2022/08/19 01:06:47;;;;;;;;;;;22.70;68.10;;;22.10;62.68;96020.25;4233917;33;19909;-83
2022/08/19 01:09:15;;;;;;;;;;;22.70;68.10;;;22.10;62.69;96022.25;4234688;33;19954;-83
2022/08/19 01:11:44;;;;;;;;;;;22.70;68.10;;;22.08;62.83;96017.00;4257740;33;20073;-83
2022/08/19 01:14:13;;;;;;;;;;;22.70;68.10;;;22.10;62.60;96025.81;4233183;33;20107;-83
2022/08/19 01:16:42;;;;;;;;;;;22.60;68.00;;;22.09;62.74;96012.25;4233916;33;19902;-83
2022/08/19 01:19:14;;;;;;;;;;;22.70;68.10;;;22.09;62.60;96017.81;4234907;33;19902;-83
2022/08/19 01:21:48;;;;;;;;;;;22.70;68.10;;;22.06;62.35;96016.56;4257396;33;20056;-83
2022/08/19 01:24:18;;;;;;;;;;;22.70;68.10;;;22.07;62.71;96021.78;4233171;33;20179;-84
2022/08/19 01:26:47;;;;;;;;;;;22.60;68.20;;;22.07;62.92;96019.00;4233453;33;19910;-84
2022/08/19 01:29:16;;;;;;;;;;;22.70;68.10;;;22.07;62.67;96020.97;4233703;33;20205;-84
2022/08/19 01:31:44;;;;;;;;;;;22.70;68.00;;;22.06;62.69;96019.34;4233775;33;19987;-84
2022/08/19 01:34:13;;;;;;;;;;;22.60;68.00;;;22.07;62.79;96027.34;4233116;33;19986;-84
2022/08/19 01:36:45;;;;;;;;;;;22.70;68.10;;;22.05;62.53;96029.66;4234224;33;19909;-84
2022/08/19 01:39:23;;;;;;;;;;;22.60;68.00;;;22.05;62.69;96029.66;4234391;33;20278;-83
2022/08/19 01:41:54;;;;;;;;;;;22.60;68.00;;;22.05;62.56;96026.88;4248298;33;20159;-84
2022/08/19 01:44:24;;;;;;;;;;;22.60;68.00;;;22.03;62.62;96029.19;4237576;33;19910;-83
2022/08/19 01:46:53;;;;;;;;;;;22.60;68.10;;;22.04;62.78;96028.03;4261995;33;19909;-84
2022/08/19 01:49:23;;;;;;;;;;;22.60;68.10;;;22.03;62.79;96029.19;4262071;33;20364;-83
2022/08/19 01:51:51;;;;;;;;;;;22.60;68.00;;;22.04;62.71;96035.59;4262972;33;19902;-83
2022/08/19 01:54:23;;;;;;;;;;;22.60;68.00;;;22.03;62.54;96025.63;4262440;33;20101;-83
2022/08/19 01:56:52;;;;;;;;;;;22.60;68.00;;;22.02;62.80;96024.78;4263031;33;20217;-84
2022/08/19 01:59:21;;;;;;;;;;;22.60;67.90;;;22.03;62.35;96022.81;4262789;33;19924;-84
2022/08/19 02:01:50;;;;;;;;;;;22.60;67.80;;;22.02;62.27;96019.22;4262729;33;20030;-84
2022/08/19 02:04:18;;;;;;;;;;;22.60;67.90;;;22.01;62.35;96023.16;4260814;33;19910;-84
2022/08/19 02:06:47;;;;;;;;;;;22.60;67.90;;;22.01;62.48;96028.72;4262830;33;19901;-84
2022/08/19 02:09:16;;;;;;;;;;;22.60;68.00;;;22.01;62.41;96034.31;4262725;33;20441;-84
2022/08/19 02:11:46;;;;;;;;;;;22.60;68.00;;;22.00;62.60;96027.13;4261750;33;19929;-84
2022/08/19 02:14:15;;;;;;;;;;;22.60;67.90;;;22.00;62.60;96027.13;4261862;33;19902;-84
2022/08/19 02:16:43;;;;;;;;;;;22.60;68.00;;;22.00;62.46;96031.88;4261699;33;19910;-83
2022/08/19 02:19:14;;;;;;;;;;;22.60;68.00;;;22.00;62.55;96037.47;4261619;33;19913;-83
2022/08/19 02:21:43;;;;;;;;;;;22.60;68.00;;;22.00;62.71;96029.09;4237787;33;19902;-84
2022/08/19 02:24:12;;;;;;;;;;;22.60;68.00;;;21.99;62.62;96036.66;4262061;33;20155;-84
2022/08/19 02:26:40;;;;;;;;;;;22.60;67.90;;;21.99;62.58;96035.81;4262597;33;19964;-85
2022/08/19 02:29:11;;;;;;;;;;;22.60;67.90;;;21.99;62.41;96033.03;4262420;33;19902;-85
2022/08/19 02:32:54;;;;;;;;;;;22.60;67.90;;;21.98;62.54;96035.03;4237797;33;19909;-84
2022/08/19 02:35:23;;;;;;;;;;;22.60;67.90;;;21.97;62.63;96035.34;4262087;33;19938;-85
2022/08/19 02:40:51;;;;;;;;;;;22.60;67.80;;;21.97;62.60;96030.63;4261373;33;20085;-84
2022/08/19 02:43:20;;;;;;;;;;;22.60;68.00;;;21.97;62.72;96038.97;4261821;33;20132;-84
2022/08/19 02:45:51;;;;;;;;;;;22.60;67.90;;;21.96;62.31;96040.13;4260627;33;20209;-84
2022/08/19 02:48:20;;;;;;;;;;;22.50;67.80;;;21.96;62.41;96042.91;4261492;33;19916;-84
2022/08/19 02:50:52;;;;;;;;;;;22.50;67.80;;;21.95;62.33;96046.88;4262363;33;20126;-84
2022/08/19 02:53:21;;;;;;;;;;;22.50;67.80;;;21.96;62.31;96040.13;4261918;33;20459;-84
2022/08/19 02:55:51;;;;;;;;;;;22.50;67.80;;;21.95;62.50;96043.25;4262248;33;19909;-84
2022/08/19 02:58:20;;;;;;;;;;;22.50;67.80;;;21.95;62.35;96060.81;4261208;33;20212;-83
2022/08/19 03:00:52;;;;;;;;;;;22.50;67.90;;;21.95;62.39;96058.03;4262518;33;20070;-83
2022/08/19 03:03:21;;;;;;;;;;;22.50;67.90;;;21.95;62.26;96057.19;4236876;33;20053;-84
2022/08/19 03:05:49;;;;;;;;;;;22.50;67.90;;;21.94;62.65;96050.81;4262163;33;20111;-83
2022/08/19 03:08:18;;;;;;;;;;;22.50;67.90;;;21.93;62.45;96051.97;4261239;33;20373;-83
2022/08/19 03:10:48;;;;;;;;;;;22.50;67.80;;;21.94;62.31;96048.03;4261393;33;19902;-84
2022/08/19 03:13:18;;;;;;;;;;;22.50;67.90;;;21.92;62.47;96053.13;4261711;33;19916;-84
2022/08/19 03:15:48;;;;;;;;;;;22.50;67.90;;;21.93;62.40;96054.75;4262156;33;20058;-84
2022/08/19 03:18:18;;;;;;;;;;;22.50;68.00;;;21.92;62.61;96062.31;4264739;33;20219;-84
2022/08/19 03:20:48;;;;;;;;;;;22.50;67.90;;;21.91;62.49;96057.91;4264532;33;19909;-84
2022/08/19 03:23:17;;;;;;;;;;;22.50;67.90;;;21.92;62.58;96064.28;4262996;33;20105;-84
2022/08/19 03:25:49;;;;;;;;;;;22.50;67.90;;;21.92;62.02;96061.50;4264654;33;19909;-84
2022/08/19 03:28:19;;;;;;;;;;;22.50;67.90;;;21.91;62.73;96057.91;4263664;33;19984;-84
2022/08/19 03:30:57;;;;;;;;;;;22.50;68.00;;;21.91;62.61;96049.53;4263697;33;20120;-84
2022/08/19 03:33:28;;;;;;;;;;;22.50;67.90;;;21.91;62.47;96060.69;4239261;33;19910;-84
2022/08/19 03:36:09;;;;;;;;;;;22.50;68.00;;;21.91;62.35;96071.00;4264375;33;20105;-84
2022/08/19 03:38:38;;;;;;;;;;;22.50;67.80;;;21.90;62.38;96059.06;4263505;33;20101;-84
2022/08/19 03:41:08;;;;;;;;;;;22.50;67.80;;;21.91;62.35;96071.00;4264308;33;19909;-84
2022/08/19 03:43:37;;;;;;;;;;;22.50;68.00;;;21.90;62.70;96061.03;4262881;33;19954;-84
2022/08/19 03:46:08;;;;;;;;;;;22.50;67.80;;;21.90;62.43;96066.59;4239343;33;19906;-84
2022/08/19 03:48:38;;;;;;;;;;;22.50;67.90;;;21.89;62.27;96064.97;4263477;33;19902;-84
2022/08/19 03:51:07;;;;;;;;;;;22.50;67.80;;;21.89;62.28;96065.81;4264058;33;20013;-84
2022/08/19 03:53:36;;;;;;;;;;;22.50;67.80;;;21.90;62.73;96069.38;4263725;33;19994;-84
2022/08/19 03:56:05;;;;;;;;;;;22.40;67.70;;;21.90;62.40;96072.16;4262888;33;20021;-85
2022/08/19 03:58:34;;;;;;;;;;;22.50;67.80;;;21.91;62.41;96073.81;4264330;33;19902;-85
2022/08/19 04:01:02;;;;;;;;;;;22.50;67.70;;;21.92;62.12;96081.00;4264065;33;20457;-85
2022/08/19 04:03:31;;;;;;;;;;;22.50;67.70;;;21.94;62.07;96084.25;4263563;33;19909;-84
2022/08/19 04:06:01;;;;;;;;;;;22.50;67.70;;;21.95;62.23;96071.94;4262975;33;19909;-84
2022/08/19 04:08:31;;;;;;;;;;;22.50;67.60;;;21.98;62.01;96078.78;4263190;33;20092;-84
2022/08/19 04:10:59;;;;;;;;;;;22.60;67.40;;;21.99;61.97;96080.44;4262856;33;20279;-84
2022/08/19 04:13:28;;;;;;;;;;;22.60;67.30;;;22.01;61.81;96084.47;4262454;33;20191;-84
2022/08/19 04:15:56;;;;;;;;;;;22.60;67.20;;;22.03;61.75;96086.94;4263762;33;20165;-84
2022/08/19 04:18:25;;;;;;;;;;;22.60;67.00;;;22.04;61.74;96085.78;4263056;33;19925;-84
2022/08/19 04:20:54;;;;;;;;;;;22.60;67.00;;;22.07;61.98;96088.69;4262956;33;19904;-84
2022/08/19 04:23:24;;;;;;;;;;;22.70;67.20;;;22.11;61.92;96082.41;4262546;33;19909;-84
2022/08/19 04:25:53;;;;;;;;;;;22.70;67.20;;;22.12;61.84;96082.06;4262672;33;19925;-84
2022/08/19 04:28:21;;;;;;;;;;;22.70;67.30;;;22.14;61.85;96088.09;4262960;33;19902;-85
2022/08/19 04:30:51;;;;;;;;;;;22.80;67.00;;;22.17;62.18;96086.56;4262792;33;19902;-84
2022/08/19 04:33:22;;;;;;;;;;;22.80;67.30;;;22.20;61.98;96083.09;4262343;33;19906;-84
2022/08/19 04:35:51;;;;;;;;;;;22.80;67.50;;;22.22;62.32;96072.41;4238955;33;19908;-84
2022/08/19 04:38:23;;;;;;;;;;;22.80;67.60;;;22.23;62.29;96065.69;4262699;33;19909;-85
2022/08/19 04:43:40;;;;;;;;;;;22.80;67.80;;;22.27;62.69;96068.56;4227359;33;20114;-84
2022/08/19 04:46:10;;;;;;;;;;;22.90;67.80;;;22.27;62.53;96069.38;4264113;33;19990;-84
2022/08/19 04:48:39;;;;;;;;;;;22.90;67.80;;;22.29;62.63;96067.03;4262663;33;19902;-84
2022/08/19 04:51:09;;;;;;;;;;;22.90;67.80;;;22.30;62.76;96073.44;4262458;33;20007;-84
2022/08/19 04:53:41;;;;;;;;;;;22.90;67.80;;;22.30;62.58;96077.03;4262351;33;19902;-84
2022/08/19 04:56:11;;;;;;;;;;;22.90;67.90;;;22.31;62.45;96075.09;4263615;33;19916;-84
2022/08/19 04:58:42;;;;;;;;;;;22.90;67.80;;;22.32;62.64;96065.56;4238636;33;20312;-85
2022/08/19 05:01:12;;;;;;;;;;;22.90;67.80;;;22.33;62.69;96073.56;4263831;33;19902;-84
2022/08/19 05:03:40;;;;;;;;;;;23.00;67.80;;;22.33;62.32;96070.78;4262882;33;20209;-85
2022/08/19 05:06:11;;;;;;;;;;;23.00;67.50;;;22.34;62.60;96069.59;4238626;33;19909;-85
2022/08/19 05:08:43;;;;;;;;;;;23.00;67.60;;;22.35;62.64;96071.22;4238557;33;20165;-85
2022/08/19 05:11:13;;;;;;;;;;;23.00;67.60;;;22.37;62.12;96063.34;4263312;33;19909;-85
2022/08/19 05:13:42;;;;;;;;;;;23.00;67.50;;;22.42;62.49;96067.88;4263187;33;19902;-85
2022/08/19 05:16:11;;;;;;;;;;;23.00;67.50;;;22.44;62.51;96067.53;4238279;33;19902;-85
2022/08/19 05:24:13;;;;;;;;;;;23.10;67.50;;;22.70;61.70;96067.13;4237785;33;19902;-84
2022/08/19 05:26:46;;;;;;;;;;;23.30;67.30;;;22.84;61.61;96069.50;4262391;33;20115;-85
2022/08/19 05:29:15;;;;;;;;;;;23.40;67.00;;;22.93;61.01;96072.97;4262374;33;19902;-84
2022/08/19 05:31:44;;;;;;;;;;;23.50;66.80;;;23.00;61.25;96066.78;4238363;33;19912;-84
2022/08/19 05:34:13;;;;;;;;;;;23.50;66.60;;;23.05;61.06;96074.91;4262648;33;19909;-85
2022/08/19 05:36:44;;;;;;;;;;;23.60;66.20;;;23.09;61.07;96070.25;4262013;33;19983;-85
2022/08/19 05:39:16;;;;;;;;;;;23.60;66.10;;;23.12;60.67;96074.28;4261528;33;19902;-85
2022/08/19 05:41:46;;;;;;;;;;;23.70;66.00;;;23.14;60.85;96077.56;4262941;33;19909;-86
2022/08/19 05:44:15;;;;;;;;;;;23.70;65.90;;;23.15;60.73;96079.19;4262388;33;19909;-85
2022/08/19 05:46:46;;;;;;;;;;;23.70;65.70;;;23.16;60.48;96086.38;4263021;33;19999;-85
2022/08/19 05:49:16;;;;;;;;;;;23.70;65.60;;;23.17;60.74;96081.59;4238262;33;19902;-85
2022/08/19 05:51:44;;;;;;;;;;;23.70;65.50;;;23.17;60.64;96073.22;4262120;33;20360;-84
2022/08/19 05:54:14;;;;;;;;;;;23.70;65.60;;;23.17;60.73;96071.25;4261401;33;19917;-85
2022/08/19 05:56:44;;;;;;;;;;;23.80;65.40;;;23.19;60.56;96073.69;4238023;33;20102;-85
2022/08/19 05:59:12;;;;;;;;;;;23.80;65.40;;;23.19;60.52;96080.06;4261777;33;20154;-85
2022/08/19 06:01:44;;;;;;;;;;;23.80;65.30;;;23.21;60.16;96077.78;4262822;33;20006;-85
2022/08/19 06:04:14;;;;;;;;;;;23.80;65.30;;;23.21;60.37;96077.78;4262316;33;19949;-85
2022/08/19 06:06:42;;;;;;;;;;;23.80;65.30;;;23.22;60.50;96079.41;4261756;33;19924;-85
2022/08/19 06:09:19;;;;;;;;;;;23.80;65.30;;;23.23;60.58;96074.63;4262799;33;20322;-85
2022/08/19 06:11:48;;;;;;;;;;;23.80;65.30;;;23.25;60.18;96078.69;4238063;33;19901;-85
2022/08/19 06:14:20;;;;;;;;;;;23.80;65.30;;;23.26;60.61;96085.06;4261209;33;19902;-85
2022/08/19 06:16:51;;;;;;;;;;;23.80;65.30;;;23.28;60.65;96080.78;4262810;33;20372;-85
2022/08/19 06:19:21;;;;;;;;;;;23.90;65.50;;;23.29;60.17;96074.03;4261608;33;20129;-85
2022/08/19 06:21:51;;;;;;;;;;;23.90;65.40;;;23.31;60.57;96076.44;4237637;33;19909;-85
2022/08/19 06:24:24;;;;;;;;;;;23.90;65.40;;;23.33;60.20;96073.28;4262090;33;19902;-85
2022/08/19 06:26:53;;;;;;;;;;;23.90;65.30;;;23.36;60.08;96080.97;4261656;33;19999;-85
2022/08/19 06:29:23;;;;;;;;;;;23.90;65.30;;;23.36;60.17;96079.00;4237871;33;20237;-85
2022/08/19 06:31:56;;;;;;;;;;;23.90;65.30;;;23.40;60.32;96079.09;4261685;33;20275;-85
2022/08/19 06:34:25;;;;;;;;;;;24.00;65.30;;;23.41;59.85;96080.72;4237220;33;20063;-84
2022/08/19 06:36:54;;;;;;;;;;;24.00;65.20;;;23.43;60.15;96083.97;4261382;33;20000;-85
2022/08/19 06:39:27;;;;;;;;;;;24.00;65.20;;;23.43;59.90;96070.78;4237719;33;19902;-86
2022/08/19 06:41:58;;;;;;;;;;;24.00;65.20;;;23.45;60.41;96084.41;4261718;33;19909;-86
2022/08/19 06:44:28;;;;;;;;;;;24.00;65.20;;;23.46;60.31;96086.03;4261692;33;19950;-86
2022/08/19 06:46:57;;;;;;;;;;;24.00;65.10;;;23.48;59.93;96074.50;4261303;33;20248;-87
2022/08/19 06:49:28;;;;;;;;;;;24.00;65.20;;;23.49;60.13;96065.75;4262321;33;20213;-86
2022/08/19 06:51:58;;;;;;;;;;;24.00;65.10;;;23.50;59.90;96058.16;4264013;33;20041;-86
2022/08/19 06:54:29;;;;;;;;;;;24.00;65.20;;;23.49;60.21;96062.97;4239696;33;20112;-86
2022/08/19 06:57:01;;;;;;;;;;;24.00;65.20;;;23.51;60.17;96062.59;4264851;33;19909;-86
2022/08/19 06:59:32;;;;;;;;;;;24.00;65.20;;;23.52;60.29;96058.63;4265121;33;20125;-86
2022/08/19 07:02:05;;;;;;;;;;;24.00;65.10;;;23.54;60.31;96061.88;4263843;33;19901;-85
2022/08/19 07:04:35;;;;;;;;;;;24.00;65.20;;;23.54;60.01;96054.31;4263401;33;19951;-85
2022/08/19 07:07:07;;;;;;;;;;;24.10;65.20;;;23.54;60.23;96051.53;4263976;33;20065;-86
2022/08/19 07:09:38;;;;;;;;;;;24.10;65.30;;;23.56;60.33;96054.75;4263942;33;19902;-86
2022/08/19 07:12:09;;;;;;;;;;;24.10;65.30;;;23.56;60.09;96051.16;4263871;33;19901;-86
2022/08/19 07:14:37;;;;;;;;;;;24.10;65.30;;;23.58;60.34;96051.63;4239467;33;19901;-86
2022/08/19 07:17:07;;;;;;;;;;;24.10;65.30;;;23.58;59.97;96046.03;4264585;33;19909;-86
2022/08/19 07:19:36;;;;;;;;;;;24.10;65.30;;;23.57;60.06;96045.19;4263908;33;20113;-86
2022/08/19 07:22:06;;;;;;;;;;;24.10;65.30;;;23.59;60.28;96042.88;4263783;33;20110;-86
2022/08/19 07:25:08;;;;;;;;;;;24.10;65.30;;;23.60;60.04;96055.66;4262900;33;19909;-85
2022/08/19 07:27:38;;;;;;;;;;;24.10;65.40;;;23.62;59.95;96046.13;4264574;33;19902;-85
2022/08/19 07:30:08;;;;;;;;;;;24.10;65.40;;;23.63;60.13;96047.75;4263719;33;19908;-85
2022/08/19 07:32:37;;;;;;;;;;;24.10;65.40;;;23.64;60.15;96049.38;4239982;33;19902;-85
2022/08/19 07:35:06;;;;;;;;;;;24.20;65.30;;;23.67;59.99;96049.44;4263804;33;19909;-85
2022/08/19 07:38:09;;;;;;;;;;;24.10;65.30;;;23.69;59.75;96041.53;4263527;33;19902;-85
2022/08/19 07:40:39;;;;;;;;;;;24.20;65.20;;;23.72;59.80;96051.16;4239854;33;19901;-85
2022/08/19 07:43:08;;;;;;;;;;;24.20;65.20;;;23.74;60.09;96048.81;4239009;33;20384;-86
2022/08/19 07:45:37;;;;;;;;;;;24.20;65.20;;;23.76;59.62;96046.47;4239452;33;19906;-86
2022/08/19 07:52:27;;;;;;;;;;;24.20;65.10;;;23.79;59.66;96045.75;4235938;33;20105;-87
2022/08/19 07:54:57;;;;;;;;;;;24.20;65.00;;;23.81;60.01;96048.19;4234330;33;19953;-85
2022/08/19 07:57:26;;;;;;;;;;;24.30;65.10;;;23.81;59.48;96040.63;4234692;33;19902;-85
2022/08/19 07:59:55;;;;;;;;;;;24.30;65.10;;;23.81;59.66;96042.59;4234720;33;20117;-86
2022/08/19 08:02:24;;;;;;;;;;;24.30;65.00;;;23.83;59.83;96041.06;4210838;33;19909;-87
2022/08/19 08:09:21;;;;;;;;;;;24.30;65.00;;;23.84;59.96;96048.28;4240380;33;19898;-86
2022/08/19 08:11:56;;;;;;;;;;;24.30;65.00;;;23.83;60.01;96051.44;4210961;33;19909;-86
2022/08/19 08:14:30;;;;;;;;;;;24.30;65.00;;;23.83;59.89;96051.44;4236554;33;19909;-86
2022/08/19 08:16:59;;;;;;;;;;;24.30;65.00;;;23.81;59.96;96049.03;4239231;33;20279;-86
2022/08/19 08:19:28;;;;;;;;;;;24.30;65.00;;;23.81;59.86;96042.59;4263175;33;19909;-86
2022/08/19 08:21:57;;;;;;;;;;;24.30;65.00;;;23.79;59.58;96040.19;4239211;33;20106;-86
2022/08/19 08:24:26;;;;;;;;;;;24.30;65.00;;;23.78;60.17;96043.31;4238783;33;20255;-87
2022/08/19 08:26:55;;;;;;;;;;;24.30;65.10;;;23.77;59.71;96042.50;4210892;33;20102;-87
2022/08/19 08:29:26;;;;;;;;;;;24.30;65.10;;;23.75;60.16;96039.25;4234414;33;20174;-86
2022/08/19 08:31:54;;;;;;;;;;;24.30;65.20;;;23.72;60.11;96035.22;4210896;33;19980;-86
2022/08/19 08:34:23;;;;;;;;;;;24.30;65.30;;;23.69;60.50;96035.94;4210328;33;20702;-85
2022/08/19 08:36:52;;;;;;;;;;;24.20;65.30;;;23.67;60.33;96043.06;4236913;33;20030;-85
2022/08/19 08:39:21;;;;;;;;;;;24.20;65.30;;;23.67;60.54;96043.06;4262929;33;19905;-86
2022/08/19 08:41:54;;;;;;;;;;;24.20;65.40;;;23.65;60.16;96039.81;4258118;33;19902;-86
2022/08/19 08:44:32;;;;;;;;;;;24.20;65.50;;;23.64;60.43;96043.78;4233629;33;19902;-86
2022/08/19 08:47:02;;;;;;;;;;;24.20;65.50;;;23.63;60.39;96039.34;4234180;33;20148;-86
2022/08/19 08:49:37;;;;;;;;;;;24.10;65.50;;;23.61;60.74;96045.31;4210767;33;19902;-86
2022/08/19 08:52:08;;;;;;;;;;;24.10;65.60;;;23.60;60.58;96038.91;4234045;33;20322;-87
2022/08/19 08:54:39;;;;;;;;;;;24.10;65.60;;;23.59;60.80;96044.84;4210129;33;19911;-86
2022/08/19 08:57:11;;;;;;;;;;;24.10;65.70;;;23.58;60.59;96051.63;4234113;33;19966;-86
2022/08/19 08:59:42;;;;;;;;;;;24.10;65.70;;;23.55;60.55;96041.97;4210685;33;19902;-85
2022/08/19 09:02:11;;;;;;;;;;;24.10;65.80;;;23.55;60.47;96036.38;4210351;33;20100;-86
2022/08/19 09:04:39;;;;;;;;;;;24.10;65.80;;;23.55;60.50;96041.97;4233471;33;19909;-86
2022/08/19 09:07:21;;;;;;;;;;;24.10;65.90;;;23.54;60.88;96036.72;4210350;33;19902;-86
2022/08/19 09:09:51;;;;;;;;;;;24.10;65.90;;;23.53;60.88;96038.72;4210749;33;19902;-87
2022/08/19 09:12:24;;;;;;;;;;;24.10;65.90;;;23.52;60.62;96039.06;4233323;33;20155;-88
2022/08/19 09:14:56;;;;;;;;;;;24.00;65.80;;;23.51;61.09;96035.47;4233335;33;19909;-86
2022/08/19 09:17:30;;;;;;;;;;;24.10;66.00;;;23.48;61.20;96033.41;4235156;33;20129;-86
2022/08/19 09:20:04;;;;;;;;;;;24.00;66.00;;;23.48;61.18;96030.59;4262452;33;20341;-86
2022/08/19 09:22:33;;;;;;;;;;;24.10;66.10;;;23.47;61.28;96025.38;4238334;33;19909;-86
2022/08/19 09:25:02;;;;;;;;;;;24.00;66.00;;;23.45;61.35;96025.72;4262036;33;20240;-85
2022/08/19 09:27:31;;;;;;;;;;;24.00;66.10;;;23.44;60.99;96018.50;4263140;33;19909;-86
2022/08/19 09:30:01;;;;;;;;;;;24.00;66.10;;;23.42;61.06;96016.09;4238422;33;19902;-84
2022/08/19 09:32:30;;;;;;;;;;;24.00;66.10;;;23.42;61.13;96015.28;4238196;33;19909;-84
2022/08/19 09:35:00;;;;;;;;;;;24.00;66.20;;;23.41;61.09;96019.25;4261507;33;20128;-86
2022/08/19 09:37:29;;;;;;;;;;;24.00;66.20;;;23.39;61.33;96010.41;4262975;33;20016;-87
2022/08/19 09:39:57;;;;;;;;;;;24.00;66.30;;;23.38;61.32;96011.59;4261928;33;19909;-87
2022/08/19 09:42:26;;;;;;;;;;;24.00;66.40;;;23.36;61.27;96013.91;4261788;33;19902;-86
2022/08/19 09:44:54;;;;;;;;;;;23.90;66.40;;;23.37;61.30;96015.53;4261686;33;20320;-87
2022/08/19 09:47:24;;;;;;;;;;;24.00;66.50;;;23.36;61.66;96016.72;4262076;33;20154;-87
2022/08/19 09:49:53;;;;;;;;;;;24.00;66.50;;;23.34;61.46;96014.28;4263036;33;19986;-86
2022/08/19 09:52:21;;;;;;;;;;;23.90;66.50;;;23.34;61.33;96017.09;4262230;33;19931;-85
2022/08/19 09:54:53;;;;;;;;;;;23.90;66.50;;;23.33;61.35;96018.25;4237682;33;20170;-85
2022/08/19 09:57:22;;;;;;;;;;;23.90;66.60;;;23.33;61.62;96018.25;4261943;33;19908;-86
2022/08/19 09:59:51;;;;;;;;;;;23.90;66.50;;;23.32;61.39;96013.84;4261896;33;20128;-86
2022/08/19 10:02:19;;;;;;;;;;;23.90;66.60;;;23.32;61.71;96007.41;4262059;33;20225;-87
2022/08/19 10:07:35;;;;;;;;;;;23.90;66.70;;;23.29;61.83;96001.41;4261779;33;19909;-86
2022/08/19 10:10:05;;;;;;;;;;;23.90;66.70;;;23.31;61.47;96000.22;4261856;33;20248;-87
2022/08/19 10:12:34;;;;;;;;;;;23.90;66.80;;;23.28;61.43;95994.19;4261810;33;19902;-87
2022/08/19 10:15:03;;;;;;;;;;;23.90;66.80;;;23.28;61.42;95999.78;4285387;33;20252;-86
2022/08/19 10:17:34;;;;;;;;;;;23.90;66.80;;;23.26;61.73;95990.94;4261789;33;20141;-85
2022/08/19 10:20:06;;;;;;;;;;;23.90;66.80;;;23.28;61.71;95996.16;4237864;33;20334;-85
2022/08/19 10:22:37;;;;;;;;;;;23.90;66.80;;;23.26;61.64;95988.16;4262702;33;20019;-86
2022/08/19 10:25:08;;;;;;;;;;;23.80;66.70;;;23.26;61.76;95992.91;4236848;33;19908;-86
2022/08/19 10:27:37;;;;;;;;;;;23.90;66.80;;;23.26;61.53;95990.94;4261317;33;19901;-86
2022/08/19 10:30:08;;;;;;;;;;;23.90;66.90;;;23.24;61.61;95981.28;4261835;33;19902;-86
2022/08/19 10:32:37;;;;;;;;;;;23.80;66.80;;;23.24;61.48;95992.44;4261662;33;20260;-86
2022/08/19 10:35:08;;;;;;;;;;;23.80;66.80;;;23.24;61.57;95984.91;4237301;33;19957;-85
2022/08/19 10:37:37;;;;;;;;;;;23.80;66.80;;;23.23;61.58;95983.28;4262508;33;20471;-87
2022/08/19 10:40:08;;;;;;;;;;;23.80;66.80;;;23.23;61.67;95986.06;4261545;33;20137;-87
2022/08/19 10:42:36;;;;;;;;;;;23.80;66.90;;;23.23;61.62;95983.28;4261472;33;20162;-87
2022/08/19 10:45:09;;;;;;;;;;;23.80;66.90;;;23.22;61.87;95990.03;4236902;33;23037;-86
2022/08/19 10:47:38;;;;;;;;;;;23.80;66.80;;;23.22;61.48;95984.44;4240841;28;20127;-84
2022/08/19 10:52:54;;;;;;;;;;;23.80;66.90;;;23.21;61.74;95974.44;4181741;33;20213;-83
2022/08/19 10:58:17;;;;;;;;;;;23.80;66.90;;;23.21;61.74;95979.22;4084743;33;20138;-83
2022/08/19 11:00:51;;;;;;;;;;;23.80;66.90;;;23.20;62.04;95970.03;4181807;33;19902;-83
2022/08/19 11:03:20;;;;;;;;;;;23.80;66.90;;;23.20;61.82;95975.59;4181337;33;19909;-84
2022/08/19 11:06:00;;;;;;;;;;;23.80;67.00;;;23.19;61.71;95973.94;4181856;33;19909;-84
2022/08/19 11:08:30;;;;;;;;;;;23.80;66.90;;;23.19;61.87;95976.75;4204761;33;20032;-83
2022/08/19 11:11:01;;;;;;;;;;;23.80;67.00;;;23.19;61.76;95968.38;4181737;33;20023;-83
2022/08/19 11:13:30;;;;;;;;;;;23.80;66.90;;;23.19;61.92;95961.97;4181243;33;19961;-83
2022/08/19 11:16:00;;;;;;;;;;;23.80;67.00;;;23.17;62.00;95962.34;4181787;33;19903;-83
2022/08/19 11:18:29;;;;;;;;;;;23.80;67.00;;;23.17;61.89;95970.72;4181650;33;20028;-84
2022/08/19 11:21:09;;;;;;;;;;;23.70;67.00;;;23.17;61.45;95965.16;4181654;33;20158;-84
2022/08/19 11:23:38;;;;;;;;;;;23.70;67.00;;;23.17;62.09;95958.75;4181238;33;20051;-83
2022/08/19 11:26:06;;;;;;;;;;;23.70;67.00;;;23.17;61.88;95950.34;4181773;33;20159;-83
2022/08/19 11:28:35;;;;;;;;;;;23.80;67.00;;;23.16;62.12;95946.78;4204627;33;19903;-83
2022/08/19 11:31:03;;;;;;;;;;;23.70;67.10;;;23.17;61.93;95953.16;4181619;33;20081;-84
2022/08/19 11:33:32;;;;;;;;;;;23.80;67.10;;;23.15;61.82;95947.94;4181138;33;19909;-84
2022/08/19 11:36:02;;;;;;;;;;;23.80;67.00;;;23.15;61.90;95939.56;4181707;33;20037;-83
2022/08/19 11:38:32;;;;;;;;;;;23.70;67.10;;;23.14;61.89;95938.72;4183875;33;19903;-84
2022/08/19 11:41:02;;;;;;;;;;;23.70;67.10;;;23.14;62.04;95937.94;4183684;33;20240;-83
2022/08/19 11:43:31;;;;;;;;;;;23.70;67.10;;;23.13;62.07;95934.31;4183517;33;19903;-83
2022/08/19 11:46:00;;;;;;;;;;;23.70;67.10;;;23.15;62.00;95928.38;4207016;33;20099;-84
2022/08/19 11:48:28;;;;;;;;;;;23.80;67.10;;;23.16;61.66;95929.19;4206929;33;20122;-83
2022/08/19 11:50:57;;;;;;;;;;;23.70;67.10;;;23.15;61.67;95928.38;4206867;33;20072;-83
2022/08/19 11:53:26;;;;;;;;;;;23.70;67.10;;;23.14;61.79;95923.97;4206533;33;20265;-84
2022/08/19 11:55:56;;;;;;;;;;;23.70;67.10;;;23.15;61.60;95928.38;4206830;33;19910;-84
2022/08/19 11:58:25;;;;;;;;;;;23.70;67.10;;;23.14;62.03;95921.19;4183835;33;20155;-84
2022/08/19 12:00:54;;;;;;;;;;;23.70;67.10;;;23.14;62.20;95915.59;4207057;33;20118;-84
2022/08/19 12:03:22;;;;;;;;;;;23.70;67.10;;;23.14;62.11;95915.59;4183302;33;20523;-84
2022/08/19 12:05:51;;;;;;;;;;;23.70;67.10;;;23.13;61.95;95914.78;4183710;33;19910;-83
2022/08/19 12:08:20;;;;;;;;;;;23.70;67.10;;;23.14;62.13;95915.59;4183551;33;19903;-84
2022/08/19 12:10:48;;;;;;;;;;;23.70;67.10;;;23.13;61.85;95919.56;4183754;33;19903;-83